Time;durP1;ratioP1;P1;durP2;ratioP2;P2;SDS_P1;SDS_P2;PMS_P1;PMS_P2;Temp;Humidity;BMP_temperature;BMP_pressure;BME280_temperature;BME280_humidity;BME280_pressure;Samples;Min_cycle;Max_cycle;Signal;HPM_P1;HPM_P2
2023/12/15 00:02:13;;;;;;;28.13;15.83;;;;;;;;;;5078858;28;20901;-88
2023/12/15 00:04:39;;;;;;;29.50;16.47;;;;;;;;;;5080935;28;20482;-87
2023/12/15 00:07:06;;;;;;;28.13;15.63;;;;;;;;;;5072875;28;20487;-88
2023/12/15 00:09:32;;;;;;;31.50;17.40;;;;;;;;;;5080619;28;20495;-88
2023/12/15 00:11:59;;;;;;;27.60;15.33;;;;;;;;;;5074619;28;20507;-88
2023/12/15 00:14:25;;;;;;;42.73;16.30;;;;;;;;;;5081337;28;20512;-88
2023/12/15 00:16:52;;;;;;;29.70;17.33;;;;;;;;;;5081826;28;20468;-85
2023/12/15 00:19:20;;;;;;;28.40;15.20;;;;;;;;;;5076373;28;20471;-88
2023/12/15 00:21:46;;;;;;;33.63;17.50;;;;;;;;;;5074704;28;20480;-88
2023/12/15 00:24:12;;;;;;;28.07;15.67;;;;;;;;;;5072910;28;20460;-87
2023/12/15 00:26:39;;;;;;;35.30;17.60;;;;;;;;;;5072086;28;20448;-88
2023/12/15 00:29:05;;;;;;;32.47;16.93;;;;;;;;;;5071555;28;21214;-88
2023/12/15 00:31:32;;;;;;;37.17;17.83;;;;;;;;;;5071993;28;20479;-88
2023/12/15 00:33:58;;;;;;;29.30;17.60;;;;;;;;;;5071002;28;20938;-86
2023/12/15 00:36:26;;;;;;;36.50;16.90;;;;;;;;;;5076532;28;20512;-88
2023/12/15 00:38:53;;;;;;;32.07;16.50;;;;;;;;;;5072168;28;20457;-89
2023/12/15 00:41:19;;;;;;;34.70;18.60;;;;;;;;;;5072959;28;20447;-88
2023/12/15 00:43:46;;;;;;;30.30;17.17;;;;;;;;;;5071975;28;20456;-89
2023/12/15 00:46:12;;;;;;;31.13;17.40;;;;;;;;;;5066473;28;21035;-89
2023/12/15 00:48:38;;;;;;;33.47;16.97;;;;;;;;;;5076619;28;20479;-88
2023/12/15 00:51:05;;;;;;;31.57;17.80;;;;;;;;;;5074765;28;20551;-88
2023/12/15 00:53:33;;;;;;;36.07;19.07;;;;;;;;;;5079696;28;20528;-87
2023/12/15 00:56:00;;;;;;;36.60;18.87;;;;;;;;;;5075954;28;20463;-88
2023/12/15 00:58:26;;;;;;;34.00;18.43;;;;;;;;;;5077849;28;20475;-85
2023/12/15 01:00:53;;;;;;;36.10;19.33;;;;;;;;;;5076662;28;20547;-88
2023/12/15 01:03:19;;;;;;;32.60;17.57;;;;;;;;;;5079583;28;20475;-88
2023/12/15 01:05:45;;;;;;;45.53;21.73;;;;;;;;;;5079597;28;20563;-88
2023/12/15 01:08:12;;;;;;;29.63;17.10;;;;;;;;;;5077933;28;20487;-88
2023/12/15 01:10:40;;;;;;;39.50;19.60;;;;;;;;;;5076664;28;20523;-88
2023/12/15 01:13:06;;;;;;;36.03;18.53;;;;;;;;;;5077648;28;20479;-86
2023/12/15 01:15:34;;;;;;;36.90;18.80;;;;;;;;;;5072197;28;20534;-88
2023/12/15 01:18:00;;;;;;;41.63;22.70;;;;;;;;;;5077957;28;20460;-88
2023/12/15 01:20:27;;;;;;;44.70;22.77;;;;;;;;;;5078217;28;20521;-87
2023/12/15 01:22:53;;;;;;;41.43;22.80;;;;;;;;;;5079232;28;20459;-89
2023/12/15 01:25:20;;;;;;;45.17;22.77;;;;;;;;;;5080531;28;21003;-88
2023/12/15 01:27:47;;;;;;;47.37;23.20;;;;;;;;;;5079445;28;20546;-87
2023/12/15 01:30:14;;;;;;;41.23;22.63;;;;;;;;;;5077980;28;20494;-86
2023/12/15 01:32:40;;;;;;;44.60;22.10;;;;;;;;;;5078436;28;20872;-85
2023/12/15 01:35:07;;;;;;;46.00;23.40;;;;;;;;;;5080050;28;20511;-86
2023/12/15 01:37:34;;;;;;;42.67;22.83;;;;;;;;;;5078177;28;20453;-86
2023/12/15 01:40:00;;;;;;;45.80;22.10;;;;;;;;;;5078943;28;20528;-86
2023/12/15 01:42:27;;;;;;;42.43;22.90;;;;;;;;;;5077500;28;20484;-86
2023/12/15 01:44:54;;;;;;;44.70;24.30;;;;;;;;;;5079781;28;20487;-87
2023/12/15 01:47:24;;;;;;;51.93;25.80;;;;;;;;;;5078286;28;21119;-87
2023/12/15 01:49:51;;;;;;;49.70;24.67;;;;;;;;;;5077009;28;20475;-86
2023/12/15 01:52:18;;;;;;;46.57;24.40;;;;;;;;;;5079101;28;20550;-86
2023/12/15 01:54:44;;;;;;;46.27;23.40;;;;;;;;;;5076699;28;20518;-87
2023/12/15 01:57:11;;;;;;;49.87;23.13;;;;;;;;;;5073812;28;20488;-86
2023/12/15 01:59:44;;;;;;;46.33;24.73;;;;;;;;;;5077780;28;20456;-86
2023/12/15 02:02:11;;;;;;;44.20;21.87;;;;;;;;;;5075121;28;20502;-87
2023/12/15 02:04:38;;;;;;;46.20;26.07;;;;;;;;;;5075370;28;20963;-86
2023/12/15 02:07:04;;;;;;;45.93;22.93;;;;;;;;;;5080362;28;21354;-86
2023/12/15 02:09:31;;;;;;;49.80;25.97;;;;;;;;;;5077999;28;20460;-86
2023/12/15 02:11:57;;;;;;;47.27;22.60;;;;;;;;;;5075019;28;20515;-86
2023/12/15 02:14:24;;;;;;;45.47;23.70;;;;;;;;;;5076199;28;20574;-86
2023/12/15 02:16:50;;;;;;;48.77;24.30;;;;;;;;;;5076450;28;20459;-85
2023/12/15 02:19:18;;;;;;;51.13;24.40;;;;;;;;;;5078116;28;20525;-86
2023/12/15 02:21:44;;;;;;;43.70;22.90;;;;;;;;;;5079579;28;20967;-86
2023/12/15 02:24:12;;;;;;;50.17;24.33;;;;;;;;;;5078084;28;20610;-85
2023/12/15 02:26:38;;;;;;;46.07;22.97;;;;;;;;;;5079146;28;20529;-86
2023/12/15 02:29:05;;;;;;;48.50;23.47;;;;;;;;;;5075888;28;20499;-85
2023/12/15 02:31:31;;;;;;;45.67;21.40;;;;;;;;;;5078259;28;20492;-85
2023/12/15 02:33:57;;;;;;;42.47;24.13;;;;;;;;;;5077594;28;20531;-85
2023/12/15 02:36:23;;;;;;;48.87;24.63;;;;;;;;;;5073310;28;20522;-86
2023/12/15 02:38:50;;;;;;;43.27;21.97;;;;;;;;;;5078803;28;20763;-85
2023/12/15 02:41:21;;;;;;;44.87;23.67;;;;;;;;;;5078962;28;20463;-85
2023/12/15 02:43:47;;;;;;;46.20;23.17;;;;;;;;;;5076881;28;20490;-85
2023/12/15 02:46:13;;;;;;;50.53;23.13;;;;;;;;;;5076703;28;21003;-84
2023/12/15 02:48:40;;;;;;;54.93;24.40;;;;;;;;;;5079123;28;20455;-85
2023/12/15 02:51:07;;;;;;;54.40;26.10;;;;;;;;;;5069453;28;20483;-85
2023/12/15 02:53:33;;;;;;;48.97;22.57;;;;;;;;;;5077024;28;20480;-85
2023/12/15 02:55:59;;;;;;;50.13;24.17;;;;;;;;;;5079200;28;20518;-85
2023/12/15 02:58:27;;;;;;;43.83;21.70;;;;;;;;;;5076597;28;20901;-85
2023/12/15 03:00:54;;;;;;;48.60;24.93;;;;;;;;;;5079931;28;20547;-86
2023/12/15 03:03:20;;;;;;;57.27;26.00;;;;;;;;;;5078384;28;20452;-85
2023/12/15 03:05:46;;;;;;;45.10;22.40;;;;;;;;;;5077578;28;20519;-85
2023/12/15 03:08:13;;;;;;;48.67;24.80;;;;;;;;;;5078932;28;20479;-85
2023/12/15 03:10:39;;;;;;;45.50;24.20;;;;;;;;;;5078575;28;20498;-84
2023/12/15 03:13:06;;;;;;;47.00;24.07;;;;;;;;;;5078656;28;20482;-84
2023/12/15 03:15:34;;;;;;;49.80;24.47;;;;;;;;;;5074347;28;20510;-85
2023/12/15 03:18:00;;;;;;;45.77;23.37;;;;;;;;;;5075243;28;20480;-85
2023/12/15 03:20:26;;;;;;;46.60;24.83;;;;;;;;;;5079346;28;20452;-85
2023/12/15 03:22:53;;;;;;;47.00;23.67;;;;;;;;;;5077110;28;20570;-86
2023/12/15 03:25:19;;;;;;;48.27;24.67;;;;;;;;;;5071631;28;20458;-86
2023/12/15 03:27:46;;;;;;;45.33;24.50;;;;;;;;;;5079639;28;20520;-85
2023/12/15 03:30:12;;;;;;;49.30;23.77;;;;;;;;;;5071606;28;20455;-85
2023/12/15 03:32:40;;;;;;;48.27;24.27;;;;;;;;;;5078920;28;21031;-85
2023/12/15 03:35:07;;;;;;;54.43;25.80;;;;;;;;;;5078043;28;20511;-85
2023/12/15 03:37:33;;;;;;;44.13;23.73;;;;;;;;;;5082635;28;20516;-85
2023/12/15 03:40:00;;;;;;;49.07;24.80;;;;;;;;;;5074815;28;20499;-84
2023/12/15 03:42:26;;;;;;;40.60;22.80;;;;;;;;;;5076965;28;20510;-85
2023/12/15 03:44:52;;;;;;;45.80;24.40;;;;;;;;;;5079158;28;20501;-84
2023/12/15 03:47:19;;;;;;;43.97;21.87;;;;;;;;;;5082228;28;20451;-84
2023/12/15 03:49:46;;;;;;;48.40;22.80;;;;;;;;;;5078972;28;20470;-84
2023/12/15 03:52:13;;;;;;;45.50;24.03;;;;;;;;;;5081195;28;20480;-84
2023/12/15 03:54:39;;;;;;;46.77;23.87;;;;;;;;;;5078674;28;20503;-84
2023/12/15 03:57:06;;;;;;;47.60;24.23;;;;;;;;;;5078957;28;20444;-85
2023/12/15 03:59:32;;;;;;;49.90;24.67;;;;;;;;;;5081475;28;20543;-85
2023/12/15 04:01:58;;;;;;;50.53;23.00;;;;;;;;;;5080689;28;20976;-85
2023/12/15 04:04:25;;;;;;;54.27;24.20;;;;;;;;;;5082868;28;20480;-85
2023/12/15 04:06:52;;;;;;;44.33;22.67;;;;;;;;;;5082267;28;20531;-85
2023/12/15 04:09:19;;;;;;;48.63;23.13;;;;;;;;;;5079812;28;20566;-85
2023/12/15 04:11:46;;;;;;;36.40;19.83;;;;;;;;;;5072062;28;20482;-85
2023/12/15 04:14:13;;;;;;;41.17;20.83;;;;;;;;;;5082379;28;20470;-85
2023/12/15 04:16:40;;;;;;;41.83;21.57;;;;;;;;;;5081404;28;20567;-86
2023/12/15 04:19:07;;;;;;;39.23;21.70;;;;;;;;;;5081775;28;20523;-86
2023/12/15 04:21:33;;;;;;;42.80;21.83;;;;;;;;;;5077390;28;20568;-85
2023/12/15 04:24:01;;;;;;;42.63;22.90;;;;;;;;;;5079884;28;21171;-85
2023/12/15 04:26:27;;;;;;;38.40;19.90;;;;;;;;;;5080269;28;20484;-85
2023/12/15 04:28:54;;;;;;;35.10;20.77;;;;;;;;;;5081275;28;20456;-85
2023/12/15 04:31:20;;;;;;;40.37;21.00;;;;;;;;;;5072269;28;20464;-85
2023/12/15 04:33:46;;;;;;;41.13;20.50;;;;;;;;;;5081296;28;20523;-83
2023/12/15 04:36:13;;;;;;;35.53;21.00;;;;;;;;;;5079020;28;20600;-84
2023/12/15 04:38:39;;;;;;;42.30;20.50;;;;;;;;;;5078990;28;20574;-85
2023/12/15 04:41:16;;;;;;;35.50;19.33;;;;;;;;;;5079366;28;20971;-85
2023/12/15 04:43:43;;;;;;;35.80;19.50;;;;;;;;;;5080669;28;20496;-84
2023/12/15 04:46:09;;;;;;;46.93;22.77;;;;;;;;;;5081837;28;20535;-85
2023/12/15 04:48:36;;;;;;;41.97;20.60;;;;;;;;;;5075800;28;20492;-85
2023/12/15 04:51:02;;;;;;;38.97;20.50;;;;;;;;;;5080525;28;20447;-86
2023/12/15 04:53:28;;;;;;;40.90;21.77;;;;;;;;;;5080589;28;20480;-85
2023/12/15 04:55:55;;;;;;;43.50;23.00;;;;;;;;;;5079764;28;20551;-85
2023/12/15 04:58:22;;;;;;;46.90;24.07;;;;;;;;;;5079040;28;20535;-86
2023/12/15 05:00:49;;;;;;;46.37;23.40;;;;;;;;;;5074208;28;20519;-86
2023/12/15 05:03:15;;;;;;;44.90;23.93;;;;;;;;;;5073866;28;20500;-86
2023/12/15 05:05:43;;;;;;;51.33;25.30;;;;;;;;;;5081203;28;20476;-85
2023/12/15 05:08:09;;;;;;;47.27;25.20;;;;;;;;;;5081413;28;20460;-85
2023/12/15 05:10:36;;;;;;;52.63;24.80;;;;;;;;;;5079351;28;21023;-85
2023/12/15 05:13:03;;;;;;;50.47;25.87;;;;;;;;;;5080788;28;20527;-85
2023/12/15 05:15:32;;;;;;;49.80;25.57;;;;;;;;;;5079119;28;20468;-85
2023/12/15 05:17:58;;;;;;;49.87;24.60;;;;;;;;;;5080604;28;20567;-84
2023/12/15 05:20:24;;;;;;;46.87;26.07;;;;;;;;;;5079412;28;20547;-86
2023/12/15 05:22:51;;;;;;;44.47;23.93;;;;;;;;;;5078430;28;20455;-86
2023/12/15 05:25:17;;;;;;;46.10;22.93;;;;;;;;;;5072635;28;20480;-85
2023/12/15 05:27:43;;;;;;;41.20;22.57;;;;;;;;;;5074039;28;20483;-86
2023/12/15 05:30:11;;;;;;;46.63;24.30;;;;;;;;;;5079989;28;20443;-86
2023/12/15 05:32:39;;;;;;;49.67;24.47;;;;;;;;;;5071925;28;20506;-86
2023/12/15 05:35:06;;;;;;;47.90;24.87;;;;;;;;;;5080253;28;21010;-87
2023/12/15 05:37:32;;;;;;;51.90;27.70;;;;;;;;;;5067098;28;20518;-86
2023/12/15 05:39:59;;;;;;;51.60;25.53;;;;;;;;;;5077804;28;20475;-86
2023/12/15 05:42:25;;;;;;;56.17;30.03;;;;;;;;;;5077611;28;20587;-86
2023/12/15 05:44:52;;;;;;;57.20;28.73;;;;;;;;;;5077955;28;20543;-85
2023/12/15 05:47:18;;;;;;;57.73;31.30;;;;;;;;;;5069211;28;20456;-86
2023/12/15 05:49:46;;;;;;;61.87;30.67;;;;;;;;;;5072624;28;20556;-85
2023/12/15 05:52:14;;;;;;;63.87;31.00;;;;;;;;;;5076925;28;20495;-86
2023/12/15 05:54:40;;;;;;;55.00;30.10;;;;;;;;;;5077570;28;20511;-86
2023/12/15 05:57:06;;;;;;;62.37;31.90;;;;;;;;;;5072664;28;20528;-86
2023/12/15 05:59:33;;;;;;;55.73;28.50;;;;;;;;;;5077482;28;20461;-86
2023/12/15 06:01:59;;;;;;;52.87;28.10;;;;;;;;;;5080046;28;20459;-86
2023/12/15 06:04:26;;;;;;;52.50;28.57;;;;;;;;;;5079877;28;20968;-85
2023/12/15 06:06:54;;;;;;;57.73;30.00;;;;;;;;;;5077198;28;20452;-85
2023/12/15 06:09:21;;;;;;;51.07;27.50;;;;;;;;;;5077261;28;20541;-85
2023/12/15 06:11:48;;;;;;;56.37;28.77;;;;;;;;;;5073641;28;20448;-85
2023/12/15 06:14:15;;;;;;;55.63;29.83;;;;;;;;;;5080092;28;20460;-85
2023/12/15 06:16:41;;;;;;;56.93;29.77;;;;;;;;;;5079869;28;20918;-86
2023/12/15 06:19:08;;;;;;;59.97;29.80;;;;;;;;;;5079659;28;20455;-85
2023/12/15 06:21:34;;;;;;;64.67;30.23;;;;;;;;;;5079670;28;20531;-85
2023/12/15 06:24:02;;;;;;;67.97;30.67;;;;;;;;;;5079872;28;20483;-85
2023/12/15 06:26:28;;;;;;;61.47;30.60;;;;;;;;;;5074151;28;21050;-85
2023/12/15 06:28:55;;;;;;;60.17;30.50;;;;;;;;;;5078164;28;20508;-85
2023/12/15 06:31:22;;;;;;;62.27;31.03;;;;;;;;;;5076164;28;20546;-85
2023/12/15 06:33:48;;;;;;;58.17;30.67;;;;;;;;;;5070278;28;20500;-85
2023/12/15 06:36:15;;;;;;;51.30;29.93;;;;;;;;;;5078069;28;20476;-86
2023/12/15 06:38:43;;;;;;;53.00;28.67;;;;;;;;;;5080212;28;20487;-86
2023/12/15 06:41:11;;;;;;;63.27;29.90;;;;;;;;;;5079769;28;21561;-84
2023/12/15 06:43:39;;;;;;;61.40;31.23;;;;;;;;;;5075787;28;20552;-85
2023/12/15 06:46:06;;;;;;;66.07;31.00;;;;;;;;;;5078018;28;20534;-85
2023/12/15 06:48:32;;;;;;;74.80;31.80;;;;;;;;;;5074980;28;20741;-85
2023/12/15 06:50:58;;;;;;;63.30;32.60;;;;;;;;;;5070600;28;20448;-85
2023/12/15 06:53:25;;;;;;;73.03;33.90;;;;;;;;;;5074307;28;20470;-86
2023/12/15 06:55:51;;;;;;;65.43;32.00;;;;;;;;;;5074478;28;20512;-84
2023/12/15 06:58:19;;;;;;;65.90;30.50;;;;;;;;;;5071150;28;20458;-86
2023/12/15 07:00:46;;;;;;;64.60;29.30;;;;;;;;;;5070498;28;20488;-86
2023/12/15 07:03:12;;;;;;;59.00;29.57;;;;;;;;;;5068172;28;20452;-86
2023/12/15 07:05:38;;;;;;;74.50;32.53;;;;;;;;;;5070492;28;20536;-87
2023/12/15 07:08:05;;;;;;;71.40;31.40;;;;;;;;;;5072554;28;21016;-86
2023/12/15 07:10:32;;;;;;;65.37;31.40;;;;;;;;;;5073059;28;20471;-86
2023/12/15 07:12:58;;;;;;;78.70;31.53;;;;;;;;;;5070376;28;20799;-86
2023/12/15 07:15:28;;;;;;;60.80;30.30;;;;;;;;;;5076303;28;20475;-85
2023/12/15 07:17:54;;;;;;;65.23;32.63;;;;;;;;;;5077957;28;20479;-83
2023/12/15 07:20:20;;;;;;;64.93;31.33;;;;;;;;;;5071361;28;20436;-87
2023/12/15 07:22:47;;;;;;;63.13;30.47;;;;;;;;;;5073259;28;20459;-86
2023/12/15 07:25:14;;;;;;;72.27;32.73;;;;;;;;;;5068931;28;20482;-86
2023/12/15 07:27:41;;;;;;;65.13;31.43;;;;;;;;;;5071968;28;20464;-85
2023/12/15 07:30:08;;;;;;;63.80;30.40;;;;;;;;;;5069611;28;20448;-85
2023/12/15 07:32:35;;;;;;;59.90;31.67;;;;;;;;;;5075297;28;20456;-86
2023/12/15 07:35:03;;;;;;;70.10;32.17;;;;;;;;;;5078846;28;20547;-85
2023/12/15 07:37:30;;;;;;;67.43;31.03;;;;;;;;;;5079039;28;20487;-86
2023/12/15 07:39:56;;;;;;;57.20;29.70;;;;;;;;;;5070414;28;20490;-85
2023/12/15 07:42:22;;;;;;;65.73;29.63;;;;;;;;;;5078817;28;20906;-85
2023/12/15 07:44:49;;;;;;;73.30;30.70;;;;;;;;;;5078179;28;20530;-85
2023/12/15 07:47:15;;;;;;;66.77;29.77;;;;;;;;;;5078801;28;20550;-84
2023/12/15 07:49:42;;;;;;;61.70;32.60;;;;;;;;;;5078294;28;20479;-85
2023/12/15 07:52:08;;;;;;;57.23;29.30;;;;;;;;;;5074372;28;20463;-86
2023/12/15 07:54:36;;;;;;;59.60;27.37;;;;;;;;;;5075574;28;20539;-85
2023/12/15 07:57:02;;;;;;;70.00;30.43;;;;;;;;;;5077304;28;20488;-85
2023/12/15 07:59:28;;;;;;;60.40;28.57;;;;;;;;;;5077976;28;20907;-86
2023/12/15 08:01:55;;;;;;;71.67;29.27;;;;;;;;;;5078836;28;20536;-85
2023/12/15 08:04:22;;;;;;;57.00;29.07;;;;;;;;;;5076767;28;20931;-86
2023/12/15 08:06:50;;;;;;;65.53;29.07;;;;;;;;;;5078759;28;20500;-87
2023/12/15 08:09:16;;;;;;;61.57;28.90;;;;;;;;;;5078617;28;20479;-87
2023/12/15 08:11:42;;;;;;;58.60;29.03;;;;;;;;;;5077330;28;20455;-87
2023/12/15 08:14:09;;;;;;;60.00;27.93;;;;;;;;;;5078376;28;20491;-88
2023/12/15 08:16:35;;;;;;;62.73;28.50;;;;;;;;;;5075625;28;21356;-88
2023/12/15 08:19:05;;;;;;;73.50;30.10;;;;;;;;;;5075386;28;20506;-87
2023/12/15 08:21:31;;;;;;;57.70;29.63;;;;;;;;;;5079122;28;21094;-87
2023/12/15 08:23:59;;;;;;;55.73;26.90;;;;;;;;;;5077777;28;20513;-88
2023/12/15 08:26:27;;;;;;;72.20;29.17;;;;;;;;;;5068006;28;20440;-86
2023/12/15 08:28:54;;;;;;;64.20;28.70;;;;;;;;;;5080192;28;20523;-87
2023/12/15 08:31:20;;;;;;;64.30;28.90;;;;;;;;;;5076310;28;20451;-87
2023/12/15 08:33:47;;;;;;;71.87;29.33;;;;;;;;;;5077009;28;20579;-88
2023/12/15 08:36:14;;;;;;;68.07;30.70;;;;;;;;;;5077979;28;20566;-83
2023/12/15 08:38:40;;;;;;;66.67;28.00;;;;;;;;;;5073782;28;20464;-83
2023/12/15 08:41:08;;;;;;;68.70;29.33;;;;;;;;;;5074465;28;21032;-87
2023/12/15 08:43:35;;;;;;;63.50;29.40;;;;;;;;;;5074979;28;20455;-88
2023/12/15 08:46:02;;;;;;;61.67;28.13;;;;;;;;;;5077195;28;20519;-87
2023/12/15 08:48:27;;;;;;;66.03;28.53;;;;;;;;;;5077471;28;21130;-87
2023/12/15 08:50:54;;;;;;;64.10;29.90;;;;;;;;;;5075959;28;20948;-86
2023/12/15 08:53:20;;;;;;;64.23;28.10;;;;;;;;;;5070864;28;20214;-87
2023/12/15 08:55:47;;;;;;;68.33;30.53;;;;;;;;;;5073025;28;20468;-88
2023/12/15 08:58:15;;;;;;;63.13;28.90;;;;;;;;;;5075933;28;20524;-86
2023/12/15 09:00:42;;;;;;;68.67;28.03;;;;;;;;;;5070115;28;20830;-84
2023/12/15 09:03:08;;;;;;;76.60;30.07;;;;;;;;;;5077689;28;20471;-84
2023/12/15 09:05:35;;;;;;;67.97;28.57;;;;;;;;;;5075055;28;20458;-87
2023/12/15 09:08:02;;;;;;;69.40;28.77;;;;;;;;;;5073845;28;20472;-86
2023/12/15 09:10:32;;;;;;;67.07;28.37;;;;;;;;;;5075929;28;20440;-86
2023/12/15 09:12:58;;;;;;;67.63;28.33;;;;;;;;;;5074352;28;20448;-86
2023/12/15 09:15:26;;;;;;;74.33;27.43;;;;;;;;;;5075020;28;20440;-85
2023/12/15 09:17:52;;;;;;;68.13;27.53;;;;;;;;;;5072172;28;20569;-88
2023/12/15 09:20:19;;;;;;;57.17;27.10;;;;;;;;;;5075225;28;20449;-86
2023/12/15 09:22:46;;;;;;;80.20;29.60;;;;;;;;;;5075918;28;20452;-86
2023/12/15 09:25:13;;;;;;;74.13;29.40;;;;;;;;;;5075372;28;20463;-86
2023/12/15 09:27:39;;;;;;;70.97;29.87;;;;;;;;;;5072292;28;20529;-86
2023/12/15 09:30:06;;;;;;;61.67;27.50;;;;;;;;;;5073830;28;20448;-86
2023/12/15 09:32:34;;;;;;;65.87;25.93;;;;;;;;;;5072411;28;20811;-85
2023/12/15 09:35:00;;;;;;;66.23;25.60;;;;;;;;;;5074960;28;20492;-85
2023/12/15 09:37:27;;;;;;;66.13;25.07;;;;;;;;;;5075661;28;20550;-87
2023/12/15 09:39:53;;;;;;;55.40;24.70;;;;;;;;;;5076857;28;20505;-83
2023/12/15 09:42:22;;;;;;;56.93;26.50;;;;;;;;;;5082062;28;20463;-87
2023/12/15 09:44:49;;;;;;;52.20;25.60;;;;;;;;;;5080691;28;20852;-84
2023/12/15 09:47:16;;;;;;;56.67;24.53;;;;;;;;;;5078851;28;20468;-87
2023/12/15 09:49:44;;;;;;;67.70;24.97;;;;;;;;;;5081800;28;20463;-88
2023/12/15 09:52:12;;;;;;;56.70;25.33;;;;;;;;;;5077046;28;20466;-87
2023/12/15 09:54:38;;;;;;;55.33;25.00;;;;;;;;;;5082214;28;21670;-87
2023/12/15 09:57:05;;;;;;;52.10;22.93;;;;;;;;;;5077980;28;20510;-87
2023/12/15 09:59:31;;;;;;;48.73;24.70;;;;;;;;;;5076444;28;20481;-88
2023/12/15 10:01:58;;;;;;;53.33;23.87;;;;;;;;;;5081926;28;20491;-87
2023/12/15 10:04:24;;;;;;;50.00;23.37;;;;;;;;;;5082225;28;20947;-87
2023/12/15 10:06:52;;;;;;;51.80;22.63;;;;;;;;;;5081102;28;20881;-88
2023/12/15 10:09:18;;;;;;;50.53;23.00;;;;;;;;;;5075025;28;20485;-85
2023/12/15 10:11:45;;;;;;;50.07;22.80;;;;;;;;;;5077341;28;20460;-84
2023/12/15 10:14:14;;;;;;;53.27;24.23;;;;;;;;;;5078662;28;20495;-85
2023/12/15 10:16:41;;;;;;;49.70;23.07;;;;;;;;;;5075897;28;20503;-84
2023/12/15 10:19:08;;;;;;;48.80;23.23;;;;;;;;;;5072223;28;21185;-85
2023/12/15 10:21:35;;;;;;;48.53;21.87;;;;;;;;;;5077641;28;20789;-85
2023/12/15 10:24:17;;;;;;;48.17;22.17;;;;;;;;;;5080517;28;20523;-84
2023/12/15 10:26:43;;;;;;;46.40;20.73;;;;;;;;;;5077800;28;20472;-85
2023/12/15 10:29:10;;;;;;;46.23;23.20;;;;;;;;;;5077567;28;20967;-85
2023/12/15 10:31:38;;;;;;;42.03;21.30;;;;;;;;;;5078864;28;20560;-85
2023/12/15 10:34:04;;;;;;;45.83;22.10;;;;;;;;;;5076982;28;20700;-87
2023/12/15 10:36:33;;;;;;;41.07;21.27;;;;;;;;;;5079772;28;20556;-86
2023/12/15 10:39:00;;;;;;;44.10;20.53;;;;;;;;;;5077535;28;20448;-85
2023/12/15 10:41:30;;;;;;;44.90;19.97;;;;;;;;;;5075404;28;20467;-85
2023/12/15 10:43:58;;;;;;;45.07;21.73;;;;;;;;;;5073964;28;20453;-86
2023/12/15 10:46:24;;;;;;;48.70;21.00;;;;;;;;;;5072375;28;20518;-87
2023/12/15 10:48:53;;;;;;;51.37;20.80;;;;;;;;;;5078044;28;20456;-86
2023/12/15 10:51:20;;;;;;;51.47;20.40;;;;;;;;;;5078108;28;20492;-87
2023/12/15 10:53:48;;;;;;;47.33;21.20;;;;;;;;;;5076493;28;20483;-89
2023/12/15 10:56:15;;;;;;;48.23;21.03;;;;;;;;;;5075893;28;20478;-88
2023/12/15 10:58:43;;;;;;;55.60;20.73;;;;;;;;;;5077046;28;20492;-88
2023/12/15 11:01:11;;;;;;;47.63;22.10;;;;;;;;;;5072388;28;20904;-88
2023/12/15 11:03:38;;;;;;;51.17;22.97;;;;;;;;;;5071507;28;20476;-88
2023/12/15 11:06:05;;;;;;;48.73;22.60;;;;;;;;;;5072531;28;21047;-88
2023/12/15 11:08:32;;;;;;;60.20;23.57;;;;;;;;;;5070887;28;20478;-88
2023/12/15 11:10:58;;;;;;;44.20;22.37;;;;;;;;;;5071379;28;20458;-87
2023/12/15 11:13:58;;;;;;;47.07;21.50;;;;;;;;;;5069833;28;20484;-86
2023/12/15 11:16:27;;;;;;;45.47;21.03;;;;;;;;;;4990696;28;20448;-84
2023/12/15 11:18:55;;;;;;;45.67;20.10;;;;;;;;;;5060174;28;20499;-87
2023/12/15 11:21:21;;;;;;;44.50;21.53;;;;;;;;;;5079718;28;20471;-85
2023/12/15 11:24:07;;;;;;;43.60;21.40;;;;;;;;;;5078927;28;21320;-85
2023/12/15 11:26:34;;;;;;;41.73;20.60;;;;;;;;;;5078242;28;20462;-90
2023/12/15 11:29:04;;;;;;;48.07;20.73;;;;;;;;;;5079801;28;20471;-86
2023/12/15 11:31:33;;;;;;;43.83;21.40;;;;;;;;;;5074996;28;20512;-87
2023/12/15 11:34:00;;;;;;;47.77;20.60;;;;;;;;;;5078496;28;20468;-87
2023/12/15 11:36:28;;;;;;;49.83;22.10;;;;;;;;;;5070755;28;20447;-89
2023/12/15 11:38:55;;;;;;;47.23;21.20;;;;;;;;;;5068449;28;21013;-87
2023/12/15 11:41:22;;;;;;;48.33;22.07;;;;;;;;;;5077347;28;20486;-86
2023/12/15 11:43:49;;;;;;;51.97;23.30;;;;;;;;;;5079646;28;20461;-85
2023/12/15 11:46:16;;;;;;;44.47;21.67;;;;;;;;;;5073906;28;20746;-83
2023/12/15 11:48:43;;;;;;;54.63;23.30;;;;;;;;;;5078617;28;20452;-85
2023/12/15 11:51:10;;;;;;;58.03;24.60;;;;;;;;;;5074724;28;20462;-87
2023/12/15 11:53:39;;;;;;;56.13;23.60;;;;;;;;;;5070929;28;20459;-85
2023/12/15 11:56:07;;;;;;;50.37;22.00;;;;;;;;;;5075792;28;21059;-88
2023/12/15 11:58:36;;;;;;;53.03;23.10;;;;;;;;;;5079709;28;20545;-88
2023/12/15 12:01:03;;;;;;;43.80;22.17;;;;;;;;;;5078280;28;20500;-84
2023/12/15 12:03:31;;;;;;;49.63;21.00;;;;;;;;;;5072432;28;20448;-89
2023/12/15 12:05:59;;;;;;;55.63;23.10;;;;;;;;;;5071878;28;20536;-88
2023/12/15 12:08:25;;;;;;;49.07;22.13;;;;;;;;;;5080038;28;20742;-85
2023/12/15 12:10:54;;;;;;;51.40;22.40;;;;;;;;;;5081885;28;20467;-87
2023/12/15 12:13:20;;;;;;;52.60;22.63;;;;;;;;;;5080145;28;20468;-85
2023/12/15 12:15:51;;;;;;;52.67;21.83;;;;;;;;;;5082985;28;20491;-87
2023/12/15 12:18:18;;;;;;;53.87;23.23;;;;;;;;;;5080833;28;20495;-86
2023/12/15 12:20:44;;;;;;;54.20;21.80;;;;;;;;;;5078639;28;20491;-84
2023/12/15 12:23:13;;;;;;;50.80;23.37;;;;;;;;;;5081221;28;20528;-85
2023/12/15 12:25:42;;;;;;;59.57;23.37;;;;;;;;;;5077887;28;20453;-83
2023/12/15 12:28:08;;;;;;;45.27;21.83;;;;;;;;;;5078578;28;20543;-87
2023/12/15 12:30:33;;;;;;;54.23;23.40;;;;;;;;;;5076755;28;20485;-86
2023/12/15 12:33:00;;;;;;;61.30;23.80;;;;;;;;;;5080687;28;20887;-83
2023/12/15 12:35:26;;;;;;;56.77;23.67;;;;;;;;;;5079968;28;20221;-84
2023/12/15 12:37:53;;;;;;;59.27;25.20;;;;;;;;;;5080629;28;20511;-85
2023/12/15 12:40:21;;;;;;;61.37;25.07;;;;;;;;;;5072930;28;20512;-84
2023/12/15 12:42:47;;;;;;;55.70;22.60;;;;;;;;;;5071386;28;20460;-87
2023/12/15 12:45:14;;;;;;;59.47;22.40;;;;;;;;;;5078407;28;20518;-84
2023/12/15 12:47:41;;;;;;;53.70;23.23;;;;;;;;;;5075295;28;20480;-85
2023/12/15 12:50:09;;;;;;;52.70;24.30;;;;;;;;;;5075694;28;20424;-85
2023/12/15 12:52:36;;;;;;;57.53;23.03;;;;;;;;;;5080611;28;20537;-85
2023/12/15 12:55:06;;;;;;;64.30;25.43;;;;;;;;;;5080268;28;20456;-87
2023/12/15 12:57:34;;;;;;;52.17;25.17;;;;;;;;;;5075461;28;20487;-85
2023/12/15 13:00:06;;;;;;;65.17;24.00;;;;;;;;;;5080404;28;20459;-85
2023/12/15 13:02:33;;;;;;;60.07;25.57;;;;;;;;;;5078615;28;20518;-84
2023/12/15 13:04:59;;;;;;;59.80;24.47;;;;;;;;;;5069829;28;20492;-85
2023/12/15 13:07:26;;;;;;;61.40;25.67;;;;;;;;;;5078316;28;20543;-88
2023/12/15 13:09:52;;;;;;;63.27;23.13;;;;;;;;;;5079849;28;20456;-86
2023/12/15 13:12:19;;;;;;;65.50;24.57;;;;;;;;;;5080009;28;21956;-87
2023/12/15 13:14:46;;;;;;;66.13;24.47;;;;;;;;;;5079620;28;20488;-83
2023/12/15 13:17:14;;;;;;;72.40;26.13;;;;;;;;;;5079837;28;20471;-84
2023/12/15 13:19:40;;;;;;;59.00;22.47;;;;;;;;;;5076246;28;20887;-85
2023/12/15 13:22:07;;;;;;;50.40;25.30;;;;;;;;;;5076995;28;20506;-84
2023/12/15 13:24:34;;;;;;;56.80;23.23;;;;;;;;;;5079899;28;20456;-85
2023/12/15 13:27:00;;;;;;;49.00;22.37;;;;;;;;;;5078823;28;20492;-85
2023/12/15 13:29:26;;;;;;;49.00;24.50;;;;;;;;;;5074801;28;20488;-84
2023/12/15 13:31:54;;;;;;;54.80;22.80;;;;;;;;;;5077069;28;20543;-84
2023/12/15 13:34:21;;;;;;;45.67;23.97;;;;;;;;;;5075142;28;20875;-87
2023/12/15 13:36:47;;;;;;;52.57;21.90;;;;;;;;;;5079070;28;20478;-86
2023/12/15 13:39:15;;;;;;;50.60;21.40;;;;;;;;;;5073144;28;20477;-87
2023/12/15 13:41:42;;;;;;;60.93;21.90;;;;;;;;;;5076861;28;20445;-86
2023/12/15 13:44:08;;;;;;;56.47;23.53;;;;;;;;;;5076247;28;20472;-91
2023/12/15 13:46:35;;;;;;;50.23;22.67;;;;;;;;;;5074590;28;20987;-86
2023/12/15 13:49:05;;;;;;;54.40;23.90;;;;;;;;;;5078843;28;20511;-86
2023/12/15 13:51:32;;;;;;;51.97;23.83;;;;;;;;;;5079534;28;20456;-86
2023/12/15 13:53:58;;;;;;;49.27;23.50;;;;;;;;;;5072126;28;20545;-84
2023/12/15 13:56:28;;;;;;;42.93;23.23;;;;;;;;;;5080111;28;20464;-82
2023/12/15 13:58:55;;;;;;;52.90;23.30;;;;;;;;;;5071383;28;20496;-84
2023/12/15 14:01:21;;;;;;;55.57;24.27;;;;;;;;;;5074295;28;21200;-84
2023/12/15 14:03:48;;;;;;;45.40;21.07;;;;;;;;;;5076339;28;20460;-86
2023/12/15 14:06:16;;;;;;;55.30;23.23;;;;;;;;;;5077804;28;20583;-86
2023/12/15 14:08:43;;;;;;;50.90;20.77;;;;;;;;;;5076739;28;20546;-85
2023/12/15 14:11:10;;;;;;;64.77;23.50;;;;;;;;;;5071272;28;20456;-85
2023/12/15 14:13:36;;;;;;;56.50;21.93;;;;;;;;;;5078704;28;20476;-83
2023/12/15 14:16:03;;;;;;;58.60;23.77;;;;;;;;;;5079856;28;20487;-85